sensor_id;sensor_type;location;lat;lon;timestamp;temperature;humidity
4209;DHT22;36320;48.860;2.380;2023-05-10T00:00:26;15.60;83.40
4209;DHT22;36320;48.860;2.380;2023-05-10T00:02:52;15.70;83.50
4209;DHT22;36320;48.860;2.380;2023-05-10T00:05:18;15.50;83.40
4209;DHT22;36320;48.860;2.380;2023-05-10T00:07:44;15.30;83.40
4209;DHT22;36320;48.860;2.380;2023-05-10T00:10:10;15.40;83.40
4209;DHT22;36320;48.860;2.380;2023-05-10T00:12:36;15.40;83.40
4209;DHT22;36320;48.860;2.380;2023-05-10T00:15:03;15.30;83.30
4209;DHT22;36320;48.860;2.380;2023-05-10T00:17:29;15.40;83.20
4209;DHT22;36320;48.860;2.380;2023-05-10T00:19:56;15.30;83.10
4209;DHT22;36320;48.860;2.380;2023-05-10T00:22:22;15.30;82.40
4209;DHT22;36320;48.860;2.380;2023-05-10T00:24:47;15.20;82.10
4209;DHT22;36320;48.860;2.380;2023-05-10T00:27:14;15.30;81.60
4209;DHT22;36320;48.860;2.380;2023-05-10T00:29:40;15.20;81.30
4209;DHT22;36320;48.860;2.380;2023-05-10T00:32:06;15.10;81.30
4209;DHT22;36320;48.860;2.380;2023-05-10T00:34:32;15.10;81.10
4209;DHT22;36320;48.860;2.380;2023-05-10T00:36:57;15.00;80.90
4209;DHT22;36320;48.860;2.380;2023-05-10T00:39:23;15.00;81.10
4209;DHT22;36320;48.860;2.380;2023-05-10T00:41:49;15.00;80.80
4209;DHT22;36320;48.860;2.380;2023-05-10T00:44:15;15.00;80.60
4209;DHT22;36320;48.860;2.380;2023-05-10T00:46:41;14.90;80.40
4209;DHT22;36320;48.860;2.380;2023-05-10T00:49:07;14.90;80.50
4209;DHT22;36320;48.860;2.380;2023-05-10T00:51:33;14.90;80.50
4209;DHT22;36320;48.860;2.380;2023-05-10T00:53:59;14.90;80.40
4209;DHT22;36320;48.860;2.380;2023-05-10T00:56:26;14.90;80.20
4209;DHT22;36320;48.860;2.380;2023-05-10T00:58:53;14.80;80.30
4209;DHT22;36320;48.860;2.380;2023-05-10T01:01:20;14.80;80.30
4209;DHT22;36320;48.860;2.380;2023-05-10T01:03:46;14.90;80.30
4209;DHT22;36320;48.860;2.380;2023-05-10T01:06:12;14.90;80.20
4209;DHT22;36320;48.860;2.380;2023-05-10T01:08:38;14.90;80.10
4209;DHT22;36320;48.860;2.380;2023-05-10T01:11:04;14.90;79.80
4209;DHT22;36320;48.860;2.380;2023-05-10T01:13:33;14.70;79.70
4209;DHT22;36320;48.860;2.380;2023-05-10T01:16:00;14.70;79.90
4209;DHT22;36320;48.860;2.380;2023-05-10T01:18:30;14.80;79.70
4209;DHT22;36320;48.860;2.380;2023-05-10T01:36:06;14.80;79.10
4209;DHT22;36320;48.860;2.380;2023-05-10T01:38:38;14.90;79.00
4209;DHT22;36320;48.860;2.380;2023-05-10T01:46:55;15.20;78.50
4209;DHT22;36320;48.860;2.380;2023-05-10T01:49:30;15.00;78.10
4209;DHT22;36320;48.860;2.380;2023-05-10T01:52:04;15.00;78.40
4209;DHT22;36320;48.860;2.380;2023-05-10T01:54:33;14.70;78.90
4209;DHT22;36320;48.860;2.380;2023-05-10T01:57:03;14.60;78.30
4209;DHT22;36320;48.860;2.380;2023-05-10T01:59:35;14.50;78.50
4209;DHT22;36320;48.860;2.380;2023-05-10T02:02:02;14.50;78.90
4209;DHT22;36320;48.860;2.380;2023-05-10T02:04:31;14.60;79.10
4209;DHT22;36320;48.860;2.380;2023-05-10T02:06:58;14.80;78.90
4209;DHT22;36320;48.860;2.380;2023-05-10T02:09:25;14.90;78.60
4209;DHT22;36320;48.860;2.380;2023-05-10T02:11:54;14.90;78.30
4209;DHT22;36320;48.860;2.380;2023-05-10T02:14:21;14.90;78.20
4209;DHT22;36320;48.860;2.380;2023-05-10T02:16:49;15.00;78.50
4209;DHT22;36320;48.860;2.380;2023-05-10T02:19:17;14.90;78.30
4209;DHT22;36320;48.860;2.380;2023-05-10T02:21:45;15.00;78.40
4209;DHT22;36320;48.860;2.380;2023-05-10T02:24:11;15.00;78.00
4209;DHT22;36320;48.860;2.380;2023-05-10T02:26:39;15.00;78.10
4209;DHT22;36320;48.860;2.380;2023-05-10T02:29:05;15.00;78.00
4209;DHT22;36320;48.860;2.380;2023-05-10T02:31:33;15.10;78.00
4209;DHT22;36320;48.860;2.380;2023-05-10T02:34:01;15.00;77.80
4209;DHT22;36320;48.860;2.380;2023-05-10T02:36:28;15.10;77.80
4209;DHT22;36320;48.860;2.380;2023-05-10T02:38:55;14.80;77.60
4209;DHT22;36320;48.860;2.380;2023-05-10T02:41:22;14.90;78.00
4209;DHT22;36320;48.860;2.380;2023-05-10T02:43:50;15.00;77.80
4209;DHT22;36320;48.860;2.380;2023-05-10T02:46:17;15.10;77.70
4209;DHT22;36320;48.860;2.380;2023-05-10T02:48:44;15.00;77.60
4209;DHT22;36320;48.860;2.380;2023-05-10T02:51:13;15.20;77.50
4209;DHT22;36320;48.860;2.380;2023-05-10T02:53:44;15.10;77.10
4209;DHT22;36320;48.860;2.380;2023-05-10T02:56:23;15.10;77.30
4209;DHT22;36320;48.860;2.380;2023-05-10T02:58:50;15.30;77.30
4209;DHT22;36320;48.860;2.380;2023-05-10T03:01:17;15.50;76.90
4209;DHT22;36320;48.860;2.380;2023-05-10T03:03:42;15.60;76.40
4209;DHT22;36320;48.860;2.380;2023-05-10T03:06:08;15.40;76.40
4209;DHT22;36320;48.860;2.380;2023-05-10T03:08:36;15.20;76.50
4209;DHT22;36320;48.860;2.380;2023-05-10T03:11:09;15.30;76.70
4209;DHT22;36320;48.860;2.380;2023-05-10T03:13:56;15.30;76.60
4209;DHT22;36320;48.860;2.380;2023-05-10T03:16:36;15.10;76.70
4209;DHT22;36320;48.860;2.380;2023-05-10T03:19:17;15.20;76.90
4209;DHT22;36320;48.860;2.380;2023-05-10T03:21:50;15.20;76.50
4209;DHT22;36320;48.860;2.380;2023-05-10T03:24:20;14.80;77.00
4209;DHT22;36320;48.860;2.380;2023-05-10T03:26:46;14.90;77.70
4209;DHT22;36320;48.860;2.380;2023-05-10T03:29:13;14.90;77.60
4209;DHT22;36320;48.860;2.380;2023-05-10T03:31:40;15.00;77.60
4209;DHT22;36320;48.860;2.380;2023-05-10T03:34:06;15.10;77.50
4209;DHT22;36320;48.860;2.380;2023-05-10T03:36:32;15.10;77.50
4209;DHT22;36320;48.860;2.380;2023-05-10T03:38:59;15.10;77.60
4209;DHT22;36320;48.860;2.380;2023-05-10T03:41:25;15.10;77.50
4209;DHT22;36320;48.860;2.380;2023-05-10T03:43:51;14.90;77.70
4209;DHT22;36320;48.860;2.380;2023-05-10T03:46:17;14.80;77.90
4209;DHT22;36320;48.860;2.380;2023-05-10T03:48:43;14.90;78.10
4209;DHT22;36320;48.860;2.380;2023-05-10T03:51:09;14.80;78.80
4209;DHT22;36320;48.860;2.380;2023-05-10T03:53:34;15.10;79.40
4209;DHT22;36320;48.860;2.380;2023-05-10T03:56:01;14.90;79.50
4209;DHT22;36320;48.860;2.380;2023-05-10T03:58:27;14.90;79.80
4209;DHT22;36320;48.860;2.380;2023-05-10T04:00:52;14.90;80.10
4209;DHT22;36320;48.860;2.380;2023-05-10T04:03:18;14.90;80.20
4209;DHT22;36320;48.860;2.380;2023-05-10T04:05:44;15.00;80.40
4209;DHT22;36320;48.860;2.380;2023-05-10T04:08:10;15.00;80.50
4209;DHT22;36320;48.860;2.380;2023-05-10T04:10:35;14.90;80.90
4209;DHT22;36320;48.860;2.380;2023-05-10T04:13:01;14.80;81.20
4209;DHT22;36320;48.860;2.380;2023-05-10T04:15:27;14.80;81.40
4209;DHT22;36320;48.860;2.380;2023-05-10T04:17:53;14.90;81.30
4209;DHT22;36320;48.860;2.380;2023-05-10T04:20:19;15.00;81.70
4209;DHT22;36320;48.860;2.380;2023-05-10T04:22:46;15.00;81.60
4209;DHT22;36320;48.860;2.380;2023-05-10T04:25:12;14.90;81.90
4209;DHT22;36320;48.860;2.380;2023-05-10T04:27:38;15.00;81.90
4209;DHT22;36320;48.860;2.380;2023-05-10T04:30:04;14.90;81.80
4209;DHT22;36320;48.860;2.380;2023-05-10T04:32:31;15.00;82.00
4209;DHT22;36320;48.860;2.380;2023-05-10T04:34:58;14.90;82.20
4209;DHT22;36320;48.860;2.380;2023-05-10T04:37:24;15.00;82.50
4209;DHT22;36320;48.860;2.380;2023-05-10T04:39:51;15.20;82.60
4209;DHT22;36320;48.860;2.380;2023-05-10T04:42:16;15.20;82.50
4209;DHT22;36320;48.860;2.380;2023-05-10T04:44:42;15.00;82.50
4209;DHT22;36320;48.860;2.380;2023-05-10T04:47:09;15.20;82.70
4209;DHT22;36320;48.860;2.380;2023-05-10T04:49:35;15.20;82.40
4209;DHT22;36320;48.860;2.380;2023-05-10T04:52:00;15.00;82.50
4209;DHT22;36320;48.860;2.380;2023-05-10T04:54:26;14.90;83.20
4209;DHT22;36320;48.860;2.380;2023-05-10T04:56:53;14.90;83.60
4209;DHT22;36320;48.860;2.380;2023-05-10T04:59:18;14.70;83.80
4209;DHT22;36320;48.860;2.380;2023-05-10T05:01:46;14.90;84.50
4209;DHT22;36320;48.860;2.380;2023-05-10T05:04:14;15.10;84.60
4209;DHT22;36320;48.860;2.380;2023-05-10T05:06:40;15.10;84.80
4209;DHT22;36320;48.860;2.380;2023-05-10T05:09:06;15.20;85.00
4209;DHT22;36320;48.860;2.380;2023-05-10T05:11:31;15.20;85.30
4209;DHT22;36320;48.860;2.380;2023-05-10T05:13:58;15.10;85.00
4209;DHT22;36320;48.860;2.380;2023-05-10T05:16:25;15.10;85.90
4209;DHT22;36320;48.860;2.380;2023-05-10T05:18:51;15.30;86.50
4209;DHT22;36320;48.860;2.380;2023-05-10T05:21:17;15.40;86.80
4209;DHT22;36320;48.860;2.380;2023-05-10T05:23:45;15.20;87.10
4209;DHT22;36320;48.860;2.380;2023-05-10T05:26:11;15.30;87.50
4209;DHT22;36320;48.860;2.380;2023-05-10T05:28:41;15.40;87.10
4209;DHT22;36320;48.860;2.380;2023-05-10T05:31:07;15.30;87.10
4209;DHT22;36320;48.860;2.380;2023-05-10T05:33:34;15.10;86.90
4209;DHT22;36320;48.860;2.380;2023-05-10T05:36:04;15.00;87.00
4209;DHT22;36320;48.860;2.380;2023-05-10T05:38:29;15.20;87.20
4209;DHT22;36320;48.860;2.380;2023-05-10T05:40:56;15.30;87.00
4209;DHT22;36320;48.860;2.380;2023-05-10T05:43:21;15.20;87.00
4209;DHT22;36320;48.860;2.380;2023-05-10T05:45:58;15.20;87.00
4209;DHT22;36320;48.860;2.380;2023-05-10T05:48:24;15.30;87.20
4209;DHT22;36320;48.860;2.380;2023-05-10T05:50:49;15.20;87.20
4209;DHT22;36320;48.860;2.380;2023-05-10T05:53:15;15.20;87.00
4209;DHT22;36320;48.860;2.380;2023-05-10T05:55:51;15.10;86.90
4209;DHT22;36320;48.860;2.380;2023-05-10T05:58:17;15.30;87.00
4209;DHT22;36320;48.860;2.380;2023-05-10T06:00:43;15.60;87.00
4209;DHT22;36320;48.860;2.380;2023-05-10T06:03:09;15.80;86.60
4209;DHT22;36320;48.860;2.380;2023-05-10T06:05:35;15.90;86.40
4209;DHT22;36320;48.860;2.380;2023-05-10T06:08:01;16.00;86.50
4209;DHT22;36320;48.860;2.380;2023-05-10T06:10:27;16.10;86.20
4209;DHT22;36320;48.860;2.380;2023-05-10T06:12:53;16.20;85.80
4209;DHT22;36320;48.860;2.380;2023-05-10T06:15:21;16.20;85.60
4209;DHT22;36320;48.860;2.380;2023-05-10T06:17:48;16.20;85.80
4209;DHT22;36320;48.860;2.380;2023-05-10T06:20:18;16.20;85.40
4209;DHT22;36320;48.860;2.380;2023-05-10T06:22:44;16.40;85.60
4209;DHT22;36320;48.860;2.380;2023-05-10T06:25:11;15.70;85.80
4209;DHT22;36320;48.860;2.380;2023-05-10T06:27:39;15.40;86.60
4209;DHT22;36320;48.860;2.380;2023-05-10T06:30:06;15.40;87.30
4209;DHT22;36320;48.860;2.380;2023-05-10T06:32:34;15.20;87.80
4209;DHT22;36320;48.860;2.380;2023-05-10T06:35:03;15.20;88.20
4209;DHT22;36320;48.860;2.380;2023-05-10T06:37:30;15.40;88.40
4209;DHT22;36320;48.860;2.380;2023-05-10T06:40:16;15.50;88.40
4209;DHT22;36320;48.860;2.380;2023-05-10T06:42:42;15.40;88.40
4209;DHT22;36320;48.860;2.380;2023-05-10T06:45:08;15.40;88.30
4209;DHT22;36320;48.860;2.380;2023-05-10T06:47:34;15.40;88.40
4209;DHT22;36320;48.860;2.380;2023-05-10T06:50:00;15.60;88.60
4209;DHT22;36320;48.860;2.380;2023-05-10T06:52:27;15.50;88.50
4209;DHT22;36320;48.860;2.380;2023-05-10T06:54:54;15.30;88.30
4209;DHT22;36320;48.860;2.380;2023-05-10T06:57:20;15.60;88.20
4209;DHT22;36320;48.860;2.380;2023-05-10T06:59:52;15.60;88.20
4209;DHT22;36320;48.860;2.380;2023-05-10T07:02:18;15.70;88.50
4209;DHT22;36320;48.860;2.380;2023-05-10T07:04:43;15.70;88.30
4209;DHT22;36320;48.860;2.380;2023-05-10T07:07:11;15.70;88.20
4209;DHT22;36320;48.860;2.380;2023-05-10T07:09:36;15.80;88.50
4209;DHT22;36320;48.860;2.380;2023-05-10T07:12:03;16.10;88.10
4209;DHT22;36320;48.860;2.380;2023-05-10T07:14:28;16.30;88.00
4209;DHT22;36320;48.860;2.380;2023-05-10T07:16:54;16.10;87.30
4209;DHT22;36320;48.860;2.380;2023-05-10T07:19:21;16.20;87.50
4209;DHT22;36320;48.860;2.380;2023-05-10T07:21:47;16.60;87.30
4209;DHT22;36320;48.860;2.380;2023-05-10T07:24:13;16.60;87.10
4209;DHT22;36320;48.860;2.380;2023-05-10T07:26:39;16.70;86.90
4209;DHT22;36320;48.860;2.380;2023-05-10T07:29:06;16.50;86.70
4209;DHT22;36320;48.860;2.380;2023-05-10T07:31:33;16.40;86.60
4209;DHT22;36320;48.860;2.380;2023-05-10T07:34:00;16.20;87.50
4209;DHT22;36320;48.860;2.380;2023-05-10T07:36:27;16.10;86.90
4209;DHT22;36320;48.860;2.380;2023-05-10T07:38:54;15.90;87.40
4209;DHT22;36320;48.860;2.380;2023-05-10T07:41:21;15.70;87.90
4209;DHT22;36320;48.860;2.380;2023-05-10T07:43:47;15.70;88.60
4209;DHT22;36320;48.860;2.380;2023-05-10T07:46:14;15.70;89.30
4209;DHT22;36320;48.860;2.380;2023-05-10T07:48:40;15.80;89.60
4209;DHT22;36320;48.860;2.380;2023-05-10T07:51:06;15.80;90.00
4209;DHT22;36320;48.860;2.380;2023-05-10T07:53:34;15.70;90.00
4209;DHT22;36320;48.860;2.380;2023-05-10T07:56:20;15.70;90.20
4209;DHT22;36320;48.860;2.380;2023-05-10T07:58:46;15.80;90.30
4209;DHT22;36320;48.860;2.380;2023-05-10T08:01:12;15.90;90.20
4209;DHT22;36320;48.860;2.380;2023-05-10T08:03:38;16.00;90.00
4209;DHT22;36320;48.860;2.380;2023-05-10T08:06:04;15.80;89.90
4209;DHT22;36320;48.860;2.380;2023-05-10T08:08:29;15.70;90.10
4209;DHT22;36320;48.860;2.380;2023-05-10T08:10:58;15.60;90.20
4209;DHT22;36320;48.860;2.380;2023-05-10T08:13:24;15.50;90.20
4209;DHT22;36320;48.860;2.380;2023-05-10T08:15:50;15.50;90.30
4209;DHT22;36320;48.860;2.380;2023-05-10T08:18:21;15.50;90.40
4209;DHT22;36320;48.860;2.380;2023-05-10T08:20:46;15.50;90.40
4209;DHT22;36320;48.860;2.380;2023-05-10T08:23:12;15.50;90.50
4209;DHT22;36320;48.860;2.380;2023-05-10T08:25:39;15.60;90.50
4209;DHT22;36320;48.860;2.380;2023-05-10T08:28:06;15.70;90.40
4209;DHT22;36320;48.860;2.380;2023-05-10T08:30:31;15.60;90.40
4209;DHT22;36320;48.860;2.380;2023-05-10T08:32:57;15.30;90.20
4209;DHT22;36320;48.860;2.380;2023-05-10T08:35:23;15.70;90.40
4209;DHT22;36320;48.860;2.380;2023-05-10T08:37:50;15.80;90.40
4209;DHT22;36320;48.860;2.380;2023-05-10T08:40:19;15.90;90.20
4209;DHT22;36320;48.860;2.380;2023-05-10T08:42:54;16.20;90.50
4209;DHT22;36320;48.860;2.380;2023-05-10T08:45:23;16.40;90.20
4209;DHT22;36320;48.860;2.380;2023-05-10T08:47:50;16.60;90.30
4209;DHT22;36320;48.860;2.380;2023-05-10T08:50:20;16.50;89.40
4209;DHT22;36320;48.860;2.380;2023-05-10T08:52:48;16.40;89.30
4209;DHT22;36320;48.860;2.380;2023-05-10T08:55:17;16.50;89.10
4209;DHT22;36320;48.860;2.380;2023-05-10T08:57:46;16.50;89.20
4209;DHT22;36320;48.860;2.380;2023-05-10T09:00:14;16.60;89.30
4209;DHT22;36320;48.860;2.380;2023-05-10T09:02:40;16.80;88.80
4209;DHT22;36320;48.860;2.380;2023-05-10T09:05:07;16.90;88.30
4209;DHT22;36320;48.860;2.380;2023-05-10T09:07:33;17.10;88.20
4209;DHT22;36320;48.860;2.380;2023-05-10T09:10:00;17.50;87.70
4209;DHT22;36320;48.860;2.380;2023-05-10T09:12:27;17.80;87.10
4209;DHT22;36320;48.860;2.380;2023-05-10T09:14:54;17.80;86.10
4209;DHT22;36320;48.860;2.380;2023-05-10T09:17:25;18.00;86.40
4209;DHT22;36320;48.860;2.380;2023-05-10T09:19:58;17.90;85.50
4209;DHT22;36320;48.860;2.380;2023-05-10T09:22:25;17.80;85.70
4209;DHT22;36320;48.860;2.380;2023-05-10T09:25:10;17.70;85.30
4209;DHT22;36320;48.860;2.380;2023-05-10T09:27:40;17.50;85.10
4209;DHT22;36320;48.860;2.380;2023-05-10T09:30:06;17.80;85.20
4209;DHT22;36320;48.860;2.380;2023-05-10T09:32:37;17.50;84.20
4209;DHT22;36320;48.860;2.380;2023-05-10T09:35:25;17.60;84.60
4209;DHT22;36320;48.860;2.380;2023-05-10T09:37:58;17.80;84.50
4209;DHT22;36320;48.860;2.380;2023-05-10T09:40:26;17.90;84.30
4209;DHT22;36320;48.860;2.380;2023-05-10T09:45:32;18.10;83.50
4209;DHT22;36320;48.860;2.380;2023-05-10T09:47:58;17.90;83.30
4209;DHT22;36320;48.860;2.380;2023-05-10T09:50:25;18.00;83.50
4209;DHT22;36320;48.860;2.380;2023-05-10T09:52:58;18.10;83.70
4209;DHT22;36320;48.860;2.380;2023-05-10T09:55:45;18.20;83.50
4209;DHT22;36320;48.860;2.380;2023-05-10T09:58:12;18.10;83.40
4209;DHT22;36320;48.860;2.380;2023-05-10T10:00:40;18.20;83.40
4209;DHT22;36320;48.860;2.380;2023-05-10T10:03:11;18.30;83.40
4209;DHT22;36320;48.860;2.380;2023-05-10T10:05:40;18.00;83.00
4209;DHT22;36320;48.860;2.380;2023-05-10T10:08:08;17.70;83.10
4209;DHT22;36320;48.860;2.380;2023-05-10T10:10:34;17.40;83.20
4209;DHT22;36320;48.860;2.380;2023-05-10T10:13:00;17.60;83.70
4209;DHT22;36320;48.860;2.380;2023-05-10T10:15:26;17.60;83.70
4209;DHT22;36320;48.860;2.380;2023-05-10T10:17:52;17.60;83.70
4209;DHT22;36320;48.860;2.380;2023-05-10T10:20:20;17.70;83.70
4209;DHT22;36320;48.860;2.380;2023-05-10T10:22:47;17.30;83.50
4209;DHT22;36320;48.860;2.380;2023-05-10T10:25:15;17.10;83.50
4209;DHT22;36320;48.860;2.380;2023-05-10T10:27:48;17.00;83.30
4209;DHT22;36320;48.860;2.380;2023-05-10T10:36:02;17.40;83.60
4209;DHT22;36320;48.860;2.380;2023-05-10T10:38:54;18.00;83.10
4209;DHT22;36320;48.860;2.380;2023-05-10T10:41:36;18.20;81.90
4209;DHT22;36320;48.860;2.380;2023-05-10T10:44:23;18.40;81.50
4209;DHT22;36320;48.860;2.380;2023-05-10T11:00:32;19.40;77.80
4209;DHT22;36320;48.860;2.380;2023-05-10T11:03:12;19.40;77.40
4209;DHT22;36320;48.860;2.380;2023-05-10T11:05:47;19.50;77.20
4209;DHT22;36320;48.860;2.380;2023-05-10T11:08:30;19.40;77.10
4209;DHT22;36320;48.860;2.380;2023-05-10T11:13:40;19.10;76.30
4209;DHT22;36320;48.860;2.380;2023-05-10T11:16:19;19.20;76.60
4209;DHT22;36320;48.860;2.380;2023-05-10T11:19:12;19.20;76.60
4209;DHT22;36320;48.860;2.380;2023-05-10T11:21:46;19.40;76.10
4209;DHT22;36320;48.860;2.380;2023-05-10T11:24:15;19.30;75.80
4209;DHT22;36320;48.860;2.380;2023-05-10T11:26:45;19.60;75.80
4209;DHT22;36320;48.860;2.380;2023-05-10T11:29:13;19.90;74.80
4209;DHT22;36320;48.860;2.380;2023-05-10T11:31:44;20.00;73.40
4209;DHT22;36320;48.860;2.380;2023-05-10T11:34:13;20.10;72.70
4209;DHT22;36320;48.860;2.380;2023-05-10T11:37:02;20.30;72.50
4209;DHT22;36320;48.860;2.380;2023-05-10T11:39:32;20.10;70.40
4209;DHT22;36320;48.860;2.380;2023-05-10T11:42:22;20.10;70.60
4209;DHT22;36320;48.860;2.380;2023-05-10T11:44:59;20.00;70.10
4209;DHT22;36320;48.860;2.380;2023-05-10T11:47:27;20.00;70.00
4209;DHT22;36320;48.860;2.380;2023-05-10T11:49:56;19.80;69.50
4209;DHT22;36320;48.860;2.380;2023-05-10T11:52:28;20.10;69.30
4209;DHT22;36320;48.860;2.380;2023-05-10T11:54:54;20.60;68.50
4209;DHT22;36320;48.860;2.380;2023-05-10T11:57:25;20.60;67.90
4209;DHT22;36320;48.860;2.380;2023-05-10T11:59:56;20.40;67.60
4209;DHT22;36320;48.860;2.380;2023-05-10T12:02:22;20.30;68.00
4209;DHT22;36320;48.860;2.380;2023-05-10T12:04:49;20.50;68.10
4209;DHT22;36320;48.860;2.380;2023-05-10T12:07:16;20.50;67.50
4209;DHT22;36320;48.860;2.380;2023-05-10T12:10:03;20.40;66.70
4209;DHT22;36320;48.860;2.380;2023-05-10T12:12:49;20.60;66.40
4209;DHT22;36320;48.860;2.380;2023-05-10T12:15:18;20.90;65.70
4209;DHT22;36320;48.860;2.380;2023-05-10T12:17:48;21.10;64.60
4209;DHT22;36320;48.860;2.380;2023-05-10T12:22:54;21.50;63.10
4209;DHT22;36320;48.860;2.380;2023-05-10T12:25:22;21.30;62.50
4209;DHT22;36320;48.860;2.380;2023-05-10T12:27:52;21.00;62.80
4209;DHT22;36320;48.860;2.380;2023-05-10T12:32:49;20.60;63.50
4209;DHT22;36320;48.860;2.380;2023-05-10T12:35:15;20.40;63.10
4209;DHT22;36320;48.860;2.380;2023-05-10T12:37:43;20.60;63.60
4209;DHT22;36320;48.860;2.380;2023-05-10T12:40:10;20.40;63.30
4209;DHT22;36320;48.860;2.380;2023-05-10T12:42:38;20.20;63.50
4209;DHT22;36320;48.860;2.380;2023-05-10T12:45:07;20.00;63.70
4209;DHT22;36320;48.860;2.380;2023-05-10T12:47:33;20.20;63.90
4209;DHT22;36320;48.860;2.380;2023-05-10T12:50:00;20.60;63.90
4209;DHT22;36320;48.860;2.380;2023-05-10T12:52:27;21.20;63.40
4209;DHT22;36320;48.860;2.380;2023-05-10T12:54:53;21.20;63.00
4209;DHT22;36320;48.860;2.380;2023-05-10T12:57:22;21.00;62.80
4209;DHT22;36320;48.860;2.380;2023-05-10T12:59:49;20.50;62.50
4209;DHT22;36320;48.860;2.380;2023-05-10T13:02:15;19.80;64.30
4209;DHT22;36320;48.860;2.380;2023-05-10T13:04:44;19.00;69.90
4209;DHT22;36320;48.860;2.380;2023-05-10T13:07:10;18.70;73.60
4209;DHT22;36320;48.860;2.380;2023-05-10T13:09:36;18.70;76.40
4209;DHT22;36320;48.860;2.380;2023-05-10T13:12:02;18.90;78.60
4209;DHT22;36320;48.860;2.380;2023-05-10T13:14:28;19.00;79.90
4209;DHT22;36320;48.860;2.380;2023-05-10T13:16:55;19.10;80.30
4209;DHT22;36320;48.860;2.380;2023-05-10T13:19:23;19.50;80.30
4209;DHT22;36320;48.860;2.380;2023-05-10T13:21:49;20.00;80.00
4209;DHT22;36320;48.860;2.380;2023-05-10T13:24:15;20.50;78.90
4209;DHT22;36320;48.860;2.380;2023-05-10T13:26:41;20.80;77.30
4209;DHT22;36320;48.860;2.380;2023-05-10T13:29:07;21.30;76.40
4209;DHT22;36320;48.860;2.380;2023-05-10T13:31:33;21.70;76.40
4209;DHT22;36320;48.860;2.380;2023-05-10T13:34:00;21.60;74.70
4209;DHT22;36320;48.860;2.380;2023-05-10T13:36:28;21.00;74.60
4209;DHT22;36320;48.860;2.380;2023-05-10T13:38:54;20.50;76.20
4209;DHT22;36320;48.860;2.380;2023-05-10T13:41:20;20.10;77.70
4209;DHT22;36320;48.860;2.380;2023-05-10T13:43:46;19.40;78.40
4209;DHT22;36320;48.860;2.380;2023-05-10T13:46:14;19.00;80.90
4209;DHT22;36320;48.860;2.380;2023-05-10T13:48:40;18.60;83.00
4209;DHT22;36320;48.860;2.380;2023-05-10T13:51:07;18.70;84.70
4209;DHT22;36320;48.860;2.380;2023-05-10T13:53:32;19.20;86.30
4209;DHT22;36320;48.860;2.380;2023-05-10T13:55:58;19.40;87.40
4209;DHT22;36320;48.860;2.380;2023-05-10T13:58:27;19.60;88.10
4209;DHT22;36320;48.860;2.380;2023-05-10T14:00:53;19.70;88.40
4209;DHT22;36320;48.860;2.380;2023-05-10T14:03:18;20.30;88.40
4209;DHT22;36320;48.860;2.380;2023-05-10T14:05:44;20.80;87.70
4209;DHT22;36320;48.860;2.380;2023-05-10T14:08:10;20.90;87.10
4209;DHT22;36320;48.860;2.380;2023-05-10T14:10:38;20.60;86.30
4209;DHT22;36320;48.860;2.380;2023-05-10T14:13:04;20.30;85.00
4209;DHT22;36320;48.860;2.380;2023-05-10T14:15:32;20.10;84.20
4209;DHT22;36320;48.860;2.380;2023-05-10T14:17:58;20.10;84.10
4209;DHT22;36320;48.860;2.380;2023-05-10T14:20:23;20.20;83.80
4209;DHT22;36320;48.860;2.380;2023-05-10T14:22:49;20.30;83.10
4209;DHT22;36320;48.860;2.380;2023-05-10T14:25:15;20.30;82.10
4209;DHT22;36320;48.860;2.380;2023-05-10T14:27:41;20.60;81.30
4209;DHT22;36320;48.860;2.380;2023-05-10T14:30:08;21.30;79.90
4209;DHT22;36320;48.860;2.380;2023-05-10T14:32:34;21.70;79.10
4209;DHT22;36320;48.860;2.380;2023-05-10T14:35:02;21.80;78.20
4209;DHT22;36320;48.860;2.380;2023-05-10T14:37:28;21.70;77.80
4209;DHT22;36320;48.860;2.380;2023-05-10T14:39:55;21.70;77.60
4209;DHT22;36320;48.860;2.380;2023-05-10T14:42:24;21.50;76.80
4209;DHT22;36320;48.860;2.380;2023-05-10T14:44:49;21.10;76.90
4209;DHT22;36320;48.860;2.380;2023-05-10T14:47:15;21.10;76.00
4209;DHT22;36320;48.860;2.380;2023-05-10T14:49:42;21.30;75.80
4209;DHT22;36320;48.860;2.380;2023-05-10T14:52:08;21.90;75.30
4209;DHT22;36320;48.860;2.380;2023-05-10T14:54:33;22.50;74.00
4209;DHT22;36320;48.860;2.380;2023-05-10T14:56:59;22.80;73.10
4209;DHT22;36320;48.860;2.380;2023-05-10T14:59:26;23.00;72.00
4209;DHT22;36320;48.860;2.380;2023-05-10T15:01:52;23.10;70.90
4209;DHT22;36320;48.860;2.380;2023-05-10T15:04:18;22.40;70.00
4209;DHT22;36320;48.860;2.380;2023-05-10T15:06:43;22.20;70.40
4209;DHT22;36320;48.860;2.380;2023-05-10T15:09:12;21.90;70.20
4209;DHT22;36320;48.860;2.380;2023-05-10T15:11:38;21.70;70.10
4209;DHT22;36320;48.860;2.380;2023-05-10T15:14:04;21.50;70.90
4209;DHT22;36320;48.860;2.380;2023-05-10T15:16:30;21.40;71.30
4209;DHT22;36320;48.860;2.380;2023-05-10T15:18:57;22.00;69.70
4209;DHT22;36320;48.860;2.380;2023-05-10T15:21:23;26.00;66.70
4209;DHT22;36320;48.860;2.380;2023-05-10T15:23:48;29.30;55.80
4209;DHT22;36320;48.860;2.380;2023-05-10T15:26:15;26.50;55.40
4209;DHT22;36320;48.860;2.380;2023-05-10T15:28:43;24.60;56.90
4209;DHT22;36320;48.860;2.380;2023-05-10T15:31:09;23.00;55.20
4209;DHT22;36320;48.860;2.380;2023-05-10T15:33:37;22.30;57.10
4209;DHT22;36320;48.860;2.380;2023-05-10T15:36:05;22.20;57.30
4209;DHT22;36320;48.860;2.380;2023-05-10T15:38:32;22.00;57.50
4209;DHT22;36320;48.860;2.380;2023-05-10T15:40:58;22.10;57.80
4209;DHT22;36320;48.860;2.380;2023-05-10T15:43:24;23.10;58.10
4209;DHT22;36320;48.860;2.380;2023-05-10T15:45:51;30.70;53.80
4209;DHT22;36320;48.860;2.380;2023-05-10T15:48:17;36.40;43.60
4209;DHT22;36320;48.860;2.380;2023-05-10T15:50:43;39.20;36.40
4209;DHT22;36320;48.860;2.380;2023-05-10T15:53:08;40.30;32.80
4209;DHT22;36320;48.860;2.380;2023-05-10T15:55:34;40.40;31.10
4209;DHT22;36320;48.860;2.380;2023-05-10T15:58:01;38.10;28.90
4209;DHT22;36320;48.860;2.380;2023-05-10T16:00:27;36.20;30.80
4209;DHT22;36320;48.860;2.380;2023-05-10T16:02:53;33.60;31.80
4209;DHT22;36320;48.860;2.380;2023-05-10T16:05:20;31.00;34.10
4209;DHT22;36320;48.860;2.380;2023-05-10T16:07:46;29.20;37.20
4209;DHT22;36320;48.860;2.380;2023-05-10T16:10:13;33.50;35.50
4209;DHT22;36320;48.860;2.380;2023-05-10T16:12:39;34.10;33.60
4209;DHT22;36320;48.860;2.380;2023-05-10T16:15:06;35.80;32.10
4209;DHT22;36320;48.860;2.380;2023-05-10T16:17:32;39.40;29.90
4209;DHT22;36320;48.860;2.380;2023-05-10T16:19:58;42.00;27.60
4209;DHT22;36320;48.860;2.380;2023-05-10T16:22:25;42.50;26.10
4209;DHT22;36320;48.860;2.380;2023-05-10T16:24:56;41.20;25.60
4209;DHT22;36320;48.860;2.380;2023-05-10T16:27:24;39.60;26.30
4209;DHT22;36320;48.860;2.380;2023-05-10T16:29:53;38.60;26.60
4209;DHT22;36320;48.860;2.380;2023-05-10T16:32:20;38.20;26.20
4209;DHT22;36320;48.860;2.380;2023-05-10T16:34:46;38.00;26.80
4209;DHT22;36320;48.860;2.380;2023-05-10T16:37:12;37.80;26.20
4209;DHT22;36320;48.860;2.380;2023-05-10T16:39:38;37.10;27.20